Time;durP1;ratioP1;P1;durP2;ratioP2;P2;SDS_P1;SDS_P2;PMS_P1;PMS_P2;Temp;Humidity;BMP_temperature;BMP_pressure;BME280_temperature;BME280_humidity;BME280_pressure;Samples;Min_cycle;Max_cycle;Signal;HPM_P1;HPM_P2
2021/11/10 00:02:09;;;;;;;6.68;4.35;;;;;;;0.56;100.00;100440.00;5092625;28;20044;-68
2021/11/10 00:04:36;;;;;;;9.63;6.03;;;;;;;0.52;100.00;100441.78;5092605;28;20533;-68
2021/11/10 00:07:03;;;;;;;10.25;5.75;;;;;;;0.56;100.00;100437.44;5092335;28;20059;-67
2021/11/10 00:09:30;;;;;;;6.68;3.83;;;;;;;0.56;100.00;100434.88;5092760;28;20070;-68
2021/11/10 00:11:57;;;;;;;7.47;3.92;;;;;;;0.62;100.00;100445.03;5092696;28;20062;-68
2021/11/10 00:14:24;;;;;;;9.68;4.35;;;;;;;0.63;100.00;100426.22;5092211;28;20055;-68
2021/11/10 00:16:55;;;;;;;15.75;5.97;;;;;;;0.65;100.00;100427.03;5092757;28;20056;-67
2021/11/10 00:19:22;;;;;;;11.57;4.68;;;;;;;0.64;100.00;100433.88;5092392;28;20252;-67
2021/11/10 00:21:49;;;;;;;9.38;5.38;;;;;;;0.65;100.00;100434.72;5092660;28;20232;-66
2021/11/10 00:24:15;;;;;;;11.55;5.85;;;;;;;0.63;100.00;100432.19;5092388;28;20047;-67
2021/11/10 00:26:42;;;;;;;7.53;4.22;;;;;;;0.62;100.00;100427.09;5092162;28;20059;-66
2021/11/10 00:29:09;;;;;;;8.05;4.47;;;;;;;0.67;100.00;100416.75;5092000;28;20522;-66
2021/11/10 00:31:36;;;;;;;11.75;6.10;;;;;;;0.64;100.00;100415.09;5092458;28;20059;-66
2021/11/10 00:34:05;;;;;;;9.25;4.63;;;;;;;0.62;100.00;100410.03;5091936;28;20514;-67
2021/11/10 00:36:32;;;;;;;8.25;4.78;;;;;;;0.65;100.00;100417.63;5092108;28;20495;-66
2021/11/10 00:38:59;;;;;;;8.85;5.22;;;;;;;0.70;100.00;100411.59;5091908;28;20056;-66
2021/11/10 00:41:26;;;;;;;13.98;6.85;;;;;;;0.67;100.00;100409.94;5092372;28;20135;-66
2021/11/10 00:43:53;;;;;;;7.95;3.47;;;;;;;0.70;100.00;100414.16;5091871;28;20055;-66
2021/11/10 00:46:20;;;;;;;8.85;3.92;;;;;;;0.73;100.00;100424.34;5091837;28;20055;-66
2021/11/10 00:48:47;;;;;;;8.95;4.05;;;;;;;0.77;100.00;100413.13;5092019;28;20048;-66
2021/11/10 00:51:15;;;;;;;6.30;3.90;;;;;;;0.78;100.00;100417.41;5091948;28;20051;-66
2021/11/10 00:53:42;;;;;;;8.82;4.28;;;;;;;0.79;100.00;100422.47;5091872;28;20173;-66
2021/11/10 00:56:09;;;;;;;12.68;5.60;;;;;;;0.85;100.00;100418.97;5092036;28;20062;-66
2021/11/10 00:58:36;;;;;;;6.97;3.67;;;;;;;0.87;100.00;100419.75;5092084;28;20075;-65
2021/11/10 01:01:03;;;;;;;8.48;3.65;;;;;;;0.89;100.00;100415.44;5091897;28;20055;-65
2021/11/10 01:03:30;;;;;;;5.30;3.42;;;;;;;0.91;100.00;100408.59;5091913;28;20523;-66
2021/11/10 01:05:57;;;;;;;4.00;2.85;;;;;;;0.94;100.00;100405.97;5091887;28;20048;-65
2021/11/10 01:08:26;;;;;;;8.82;3.85;;;;;;;0.97;100.00;100405.06;5091772;28;20050;-66
2021/11/10 01:10:53;;;;;;;7.80;4.07;;;;;;;0.96;100.00;100401.66;5093948;28;20048;-65
2021/11/10 01:13:21;;;;;;;7.80;4.95;;;;;;;0.97;100.00;100397.34;5095533;28;20062;-66
2021/11/10 01:15:48;;;;;;;4.47;2.15;;;;;;;0.95;100.00;100388.84;5095888;28;20595;-65
2021/11/10 01:18:15;;;;;;;6.65;2.88;;;;;;;1.01;100.00;100392.16;5095793;28;20044;-65
2021/11/10 01:20:43;;;;;;;9.10;4.38;;;;;;;1.07;100.00;100388.59;5096010;28;20044;-66
2021/11/10 01:23:11;;;;;;;6.78;3.10;;;;;;;1.12;100.00;100385.94;5095726;28;20054;-65
2021/11/10 01:25:40;;;;;;;6.47;3.72;;;;;;;1.06;100.00;100387.75;5095565;28;20419;-65
2021/11/10 01:28:08;;;;;;;7.03;3.67;;;;;;;1.04;100.00;100383.56;5095415;28;20047;-66
2021/11/10 01:30:36;;;;;;;9.10;3.75;;;;;;;1.07;100.00;100380.91;5095455;28;20040;-65
2021/11/10 01:33:03;;;;;;;5.15;3.15;;;;;;;1.06;100.00;100390.31;5095210;28;20417;-66
2021/11/10 01:35:30;;;;;;;4.57;3.55;;;;;;;1.04;100.00;100379.25;5095597;28;20048;-66
2021/11/10 01:37:57;;;;;;;5.03;2.78;;;;;;;1.07;100.00;100368.94;5095733;28;20048;-66
2021/11/10 01:40:23;;;;;;;5.22;3.78;;;;;;;1.10;100.00;100362.91;5095397;28;20048;-67
2021/11/10 01:42:55;;;;;;;7.88;4.07;;;;;;;1.09;100.00;100363.78;5095170;28;20063;-65
2021/11/10 01:45:23;;;;;;;8.15;5.07;;;;;;;1.10;100.00;100344.97;5095376;28;20040;-65
2021/11/10 01:47:49;;;;;;;;;;;;;;;1.18;100.00;100355.91;5095943;28;20044;-65
2021/11/10 01:50:18;;;;;;;16.40;6.72;;;;;;;1.20;100.00;100359.25;5095312;28;19920;-65
2021/11/10 01:52:46;;;;;;;10.75;6.22;;;;;;;1.26;100.00;100358.31;5094875;28;20059;-65
2021/11/10 01:55:13;;;;;;;12.82;5.68;;;;;;;1.24;100.00;100353.19;5095139;28;20063;-66
2021/11/10 01:57:41;;;;;;;12.05;6.45;;;;;;;1.24;100.00;100362.63;5095361;28;20055;-65
2021/11/10 02:00:14;;;;;;;;;;;;;;;1.23;100.00;100358.34;5095430;28;20404;-66
2021/11/10 02:02:42;;;;;;;13.35;5.63;;;;;;;1.26;100.00;100366.00;5095236;28;20287;-65
2021/11/10 02:05:10;;;;;;;12.95;5.32;;;;;;;1.18;100.00;100361.03;5094552;28;20087;-65
2021/11/10 02:07:37;;;;;;;5.38;3.92;;;;;;;1.25;100.00;100366.84;5094845;28;20453;-65
2021/11/10 02:10:07;;;;;;;6.07;3.40;;;;;;;1.29;100.00;100373.59;5094614;28;20048;-65
2021/11/10 02:12:34;;;;;;;5.78;3.30;;;;;;;1.24;100.00;100368.56;5094778;28;20411;-65
2021/11/10 02:15:01;;;;;;;;;;;;;;;1.25;100.00;100370.25;5094887;28;20059;-65
2021/11/10 02:17:29;;;;;;;7.53;3.75;;;;;;;1.25;100.00;100364.28;5094725;28;20294;-66
2021/11/10 02:19:56;;;;;;;6.72;3.00;;;;;;;1.23;100.00;100374.59;5094857;28;20048;-66
2021/11/10 02:22:25;;;;;;;5.28;3.03;;;;;;;1.25;100.00;100367.69;5093677;28;20052;-65
2021/11/10 02:24:51;;;;;;;6.35;3.70;;;;;;;1.23;100.00;100360.91;5094373;28;20048;-65
2021/11/10 02:27:20;;;;;;;3.45;2.15;;;;;;;1.22;100.00;100364.38;5094525;28;20055;-65
2021/11/10 02:29:48;;;;;;;4.82;3.20;;;;;;;1.20;100.00;100363.56;5094672;28;20050;-65
2021/11/10 02:32:16;;;;;;;7.22;3.42;;;;;;;1.23;100.00;100363.47;5094174;28;20506;-66
2021/11/10 02:34:44;;;;;;;6.00;2.75;;;;;;;1.24;100.00;100370.31;5094632;28;20044;-66
2021/11/10 02:37:13;;;;;;;7.47;2.92;;;;;;;1.27;100.00;100365.09;5094055;28;20067;-66
2021/11/10 02:39:41;;;;;;;7.13;4.28;;;;;;;1.26;100.00;100361.72;5094419;28;20054;-65
2021/11/10 02:42:09;;;;;;;6.38;2.70;;;;;;;1.27;100.00;100358.25;5094241;28;20055;-65
2021/11/10 02:44:36;;;;;;;8.27;3.58;;;;;;;1.31;100.00;100361.59;5094065;28;20384;-65
2021/11/10 02:47:05;;;;;;;4.50;3.28;;;;;;;1.32;100.00;100363.28;5094211;28;20052;-65
2021/11/10 02:49:34;;;;;;;5.93;3.55;;;;;;;1.30;100.00;100360.75;5094353;28;20055;-65
2021/11/10 02:52:03;;;;;;;4.53;3.10;;;;;;;1.29;100.00;100366.75;5093670;28;20059;-65
2021/11/10 02:54:33;;;;;;;8.98;3.42;;;;;;;1.37;100.00;100376.84;5093957;28;20044;-66
2021/11/10 02:57:05;;;;;;;7.80;3.78;;;;;;;1.35;100.00;100370.88;5094047;28;20055;-65
2021/11/10 02:59:32;;;;;;;4.35;2.15;;;;;;;1.38;100.00;100359.72;5094231;28;20056;-66
2021/11/10 03:02:01;;;;;;;6.70;4.07;;;;;;;1.35;100.00;100358.06;5094076;28;20048;-65
2021/11/10 03:04:30;;;;;;;6.45;3.38;;;;;;;1.36;100.00;100367.44;5093665;28;20048;-65
2021/11/10 03:06:58;;;;;;;4.43;3.17;;;;;;;1.38;100.00;100359.72;5093652;28;20052;-65
2021/11/10 03:09:27;;;;;;;4.07;3.08;;;;;;;1.37;100.00;100353.75;5093745;28;20056;-66
2021/11/10 03:11:56;;;;;;;7.43;3.00;;;;;;;1.44;100.00;100344.19;5093616;28;20044;-65
2021/11/10 03:14:25;;;;;;;3.40;2.47;;;;;;;1.43;100.00;100339.94;5093282;28;20097;-65
2021/11/10 03:16:52;;;;;;;2.90;2.45;;;;;;;1.37;100.00;100327.28;5093857;28;20415;-65
2021/11/10 03:19:20;;;;;;;4.72;2.90;;;;;;;1.38;100.00;100313.59;5093543;28;20098;-65
2021/11/10 03:21:48;;;;;;;6.93;3.70;;;;;;;1.37;100.00;100311.91;5093642;28;20044;-65
2021/11/10 03:24:15;;;;;;;;;;;;;;;1.43;100.00;100301.50;5093894;28;20052;-65
2021/11/10 03:26:42;;;;;;;11.88;2.40;;;;;;;1.44;100.00;100285.22;5093492;28;19923;-65
2021/11/10 03:29:09;;;;;;;5.97;3.72;;;;;;;1.47;100.00;100286.00;5093412;28;20048;-65
2021/11/10 03:31:39;;;;;;;5.55;2.78;;;;;;;1.47;100.00;100293.69;5093291;28;20055;-65
2021/11/10 03:34:08;;;;;;;7.40;3.97;;;;;;;1.56;100.00;100289.22;5091812;28;20050;-65
2021/11/10 03:36:36;;;;;;;5.15;3.30;;;;;;;1.51;100.00;100279.91;5093173;28;20059;-66
2021/11/10 03:39:04;;;;;;;12.70;6.70;;;;;;;1.46;100.00;100281.72;5092774;28;20052;-65
2021/11/10 03:41:31;;;;;;;4.70;3.50;;;;;;;1.47;100.00;100296.25;5093350;28;20381;-65
2021/11/10 03:43:58;;;;;;;8.02;4.00;;;;;;;1.50;100.00;100290.22;5092918;28;20522;-65
2021/11/10 03:46:25;;;;;;;6.95;4.20;;;;;;;1.52;100.00;100291.84;5093078;28;20055;-65
2021/11/10 03:48:53;;;;;;;;;;;;;;;1.51;100.00;100282.47;5093368;28;20504;-65
2021/11/10 03:51:21;;;;;;;11.80;6.20;;;;;;;1.48;100.00;100286.84;5092554;28;20394;-65
2021/11/10 03:53:49;;;;;;;12.40;5.30;;;;;;;1.45;100.00;100280.06;5092647;28;20063;-65
2021/11/10 03:56:16;;;;;;;12.93;6.32;;;;;;;1.52;100.00;100280.75;5092597;28;20051;-65
2021/11/10 03:58:43;;;;;;;7.75;4.32;;;;;;;1.48;100.00;100287.69;5092968;28;20059;-65
2021/11/10 04:01:10;;;;;;;8.77;5.28;;;;;;;1.48;100.00;100272.28;5092466;28;20048;-65
2021/11/10 04:03:37;;;;;;;8.57;4.50;;;;;;;1.49;100.00;100270.56;5093002;28;20048;-65
2021/11/10 04:06:05;;;;;;;;;;;;;;;1.43;100.00;100278.41;5092736;28;20408;-65
2021/11/10 04:08:32;;;;;;;7.57;4.60;;;;;;;1.46;100.00;100278.34;5092907;28;19924;-65
2021/11/10 04:11:01;;;;;;;6.97;4.65;;;;;;;1.48;100.00;100292.81;5092839;28;20052;-65
2021/11/10 04:13:28;;;;;;;7.85;4.35;;;;;;;1.48;100.00;100291.97;5092722;28;20052;-65
2021/11/10 04:15:55;;;;;;;7.63;4.07;;;;;;;1.47;100.00;100306.50;5092478;28;20051;-65
2021/11/10 04:18:23;;;;;;;13.13;5.75;;;;;;;1.51;100.00;100305.53;5092508;28;20047;-66
2021/11/10 04:20:49;;;;;;;;;;;;;;;1.50;100.00;100311.56;5092747;28;20484;-65
2021/11/10 04:23:18;;;;;;;6.32;3.70;;;;;;;1.50;100.00;100324.38;5092160;28;20372;-65
2021/11/10 04:25:45;;;;;;;4.18;3.08;;;;;;;1.49;100.00;100321.84;5092168;28;20059;-65
2021/11/10 04:28:13;;;;;;;10.30;4.70;;;;;;;1.47;100.00;100311.63;5092071;28;20495;-65
2021/11/10 04:30:40;;;;;;;7.55;3.53;;;;;;;1.48;100.00;100321.00;5092140;28;20453;-65
2021/11/10 04:33:07;;;;;;;6.80;3.17;;;;;;;1.48;100.00;100323.56;5091979;28;20044;-65
2021/11/10 04:35:34;;;;;;;4.80;3.03;;;;;;;1.48;100.00;100308.19;5092492;28;20054;-65
2021/11/10 04:38:01;;;;;;;5.93;3.22;;;;;;;1.49;100.00;100314.16;5092162;28;20048;-65
2021/11/10 04:40:29;;;;;;;5.45;3.10;;;;;;;1.50;100.00;100310.72;5092404;28;20044;-65
2021/11/10 04:42:56;;;;;;;7.75;2.92;;;;;;;1.52;100.00;100311.53;5091916;28;20491;-66
2021/11/10 04:45:28;;;;;;;8.98;3.50;;;;;;;1.54;100.00;100317.44;5091538;28;20051;-66
2021/11/10 04:47:55;;;;;;;4.47;2.25;;;;;;;1.53;100.00;100320.91;5092328;28;20044;-65
2021/11/10 04:50:22;;;;;;;8.30;2.38;;;;;;;1.53;100.00;100320.91;5091780;28;20052;-66
2021/11/10 04:52:49;;;;;;;3.05;2.00;;;;;;;1.51;100.00;100315.78;5091854;28;20056;-65
2021/11/10 04:55:16;;;;;;;3.28;2.30;;;;;;;1.50;100.00;100315.84;5091985;28;20059;-65
2021/11/10 04:57:44;;;;;;;3.15;1.85;;;;;;;1.47;100.00;100318.50;5092226;28;20048;-65
2021/11/10 05:00:13;;;;;;;8.63;3.03;;;;;;;1.41;100.00;100310.94;5091954;28;20044;-65
2021/11/10 05:02:40;;;;;;;4.00;2.50;;;;;;;1.48;100.00;100310.75;5092050;28;20070;-65
2021/11/10 05:05:07;;;;;;;;;;;;;;;1.47;100.00;100313.38;5092112;28;20051;-65
2021/11/10 05:07:34;;;;;;;;;;;;;;;1.45;100.00;100300.56;5092571;28;19920;-65
2021/11/10 05:10:01;;;;;;;5.70;2.55;;;;;;;1.39;100.00;100302.44;5091639;28;19929;-65
2021/11/10 05:12:29;;;;;;;4.53;2.67;;;;;;;1.43;100.00;100298.94;5091754;28;20408;-65
2021/11/10 05:14:57;;;;;;;6.82;2.40;;;;;;;1.43;100.00;100293.81;5091671;28;20492;-66
2021/11/10 05:17:25;;;;;;;7.03;3.50;;;;;;;1.44;100.00;100298.03;5091417;28;20048;-64
2021/11/10 05:19:52;;;;;;;6.47;3.47;;;;;;;1.44;100.00;100298.91;5091747;28;20052;-65
2021/11/10 05:22:19;;;;;;;4.20;3.35;;;;;;;1.46;100.00;100302.25;5091321;28;20044;-65
2021/11/10 05:24:46;;;;;;;7.30;3.22;;;;;;;1.39;100.00;100294.75;5091990;28;20048;-65
2021/11/10 05:27:13;;;;;;;6.05;3.63;;;;;;;1.38;100.00;100290.50;5091746;28;20067;-65
2021/11/10 05:29:40;;;;;;;6.10;3.15;;;;;;;1.32;100.00;100285.53;5091862;28;20059;-65
2021/11/10 05:32:09;;;;;;;7.82;3.20;;;;;;;1.28;100.00;100283.06;5091673;28;20418;-65
2021/11/10 05:34:36;;;;;;;2.83;1.50;;;;;;;1.25;100.00;100275.41;5091832;28;20066;-65
2021/11/10 05:37:04;;;;;;;5.68;2.42;;;;;;;1.23;100.00;100266.94;5091633;28;20055;-65
2021/11/10 05:39:30;;;;;;;;;;;;;;;1.22;100.00;100270.38;5091866;28;20051;-65
2021/11/10 05:41:58;;;;;;;2.25;1.90;;;;;;;1.23;100.00;100266.09;5091417;28;19927;-65
2021/11/10 05:44:25;;;;;;;4.03;1.92;;;;;;;1.15;100.00;100265.44;5091526;28;20074;-65
2021/11/10 05:46:52;;;;;;;3.88;1.92;;;;;;;1.12;100.00;100250.97;5091826;28;20070;-65
2021/11/10 05:49:20;;;;;;;8.07;2.95;;;;;;;1.05;100.00;100250.31;5091115;28;20044;-65
2021/11/10 05:51:47;;;;;;;1.65;1.52;;;;;;;1.09;100.00;100254.44;5091730;28;20040;-65
2021/11/10 05:54:14;;;;;;;1.85;1.60;;;;;;;1.06;100.00;100246.84;5090955;28;20068;-65
2021/11/10 05:56:42;;;;;;;4.40;2.60;;;;;;;1.06;100.00;100248.56;5091401;28;20054;-65
2021/11/10 05:59:10;;;;;;;2.28;1.65;;;;;;;1.07;100.00;100245.13;5095146;28;20048;-65
2021/11/10 06:01:37;;;;;;;5.05;2.80;;;;;;;1.05;100.00;100237.50;5094828;28;20134;-65
2021/11/10 06:04:04;;;;;;;3.22;2.08;;;;;;;1.04;100.00;100238.34;5094991;28;20097;-65
2021/11/10 06:06:33;;;;;;;2.90;2.22;;;;;;;1.03;100.00;100238.41;5095239;28;20048;-65
2021/11/10 06:09:00;;;;;;;4.03;2.10;;;;;;;1.02;100.00;100244.38;5094770;28;20063;-65
2021/11/10 06:11:26;;;;;;;3.08;1.77;;;;;;;0.98;100.00;100241.06;5095000;28;20052;-65
2021/11/10 06:13:54;;;;;;;2.83;2.00;;;;;;;1.03;100.00;100238.41;5094493;28;20052;-65
2021/11/10 06:16:20;;;;;;;4.25;1.90;;;;;;;1.02;100.00;100226.47;5094419;28;20503;-65
2021/11/10 06:18:47;;;;;;;3.65;1.77;;;;;;;1.00;100.00;100217.97;5094736;28;20418;-64
2021/11/10 06:21:15;;;;;;;4.05;2.55;;;;;;;1.00;100.00;100216.25;5094475;28;20075;-65
2021/11/10 06:23:43;;;;;;;;;;;;;;;0.97;100.00;100223.16;5095172;28;20052;-65
2021/11/10 06:26:10;;;;;;;2.92;2.08;;;;;;;1.03;100.00;100228.16;5094324;28;19920;-65
2021/11/10 06:28:37;;;;;;;2.80;2.13;;;;;;;1.01;100.00;100220.50;5094488;28;20506;-65
2021/11/10 06:31:04;;;;;;;3.85;2.17;;;;;;;1.04;100.00;100210.16;5094069;28;20044;-66
2021/11/10 06:33:31;;;;;;;3.22;2.33;;;;;;;1.03;100.00;100207.66;5094656;28;20453;-65
2021/11/10 06:35:58;;;;;;;2.80;1.73;;;;;;;1.04;100.00;100196.53;5094544;28;20085;-65
2021/11/10 06:38:25;;;;;;;1.55;1.45;;;;;;;1.03;100.00;100199.97;5094535;28;20104;-65
2021/11/10 06:40:54;;;;;;;3.33;1.90;;;;;;;1.00;100.00;100193.22;5094079;28;20047;-65
2021/11/10 06:43:21;;;;;;;3.85;2.35;;;;;;;1.06;100.00;100190.47;5093876;28;20056;-65
2021/11/10 06:45:48;;;;;;;2.53;1.58;;;;;;;1.07;100.00;100193.88;5094457;28;20048;-65
2021/11/10 06:48:14;;;;;;;4.15;2.30;;;;;;;1.06;100.00;100194.78;5093737;28;20054;-65
2021/11/10 06:50:41;;;;;;;5.43;2.70;;;;;;;1.06;100.00;100207.56;5094100;28;20059;-65
2021/11/10 06:53:09;;;;;;;3.30;1.73;;;;;;;1.09;100.00;100207.50;5093485;28;20052;-65
2021/11/10 06:55:36;;;;;;;5.05;2.55;;;;;;;1.08;100.00;100193.84;5093983;28;20055;-65
2021/11/10 06:58:05;;;;;;;2.55;2.08;;;;;;;1.11;100.00;100189.53;5093863;28;20052;-65
2021/11/10 07:00:33;;;;;;;3.85;2.22;;;;;;;1.12;100.00;100191.22;5094152;28;20135;-65
2021/11/10 07:02:59;;;;;;;;;;;;;;;1.05;100.00;100191.38;5094446;28;20129;-65
2021/11/10 07:05:27;;;;;;;3.17;1.92;;;;;;;1.03;100.00;100198.25;5093749;28;19927;-65
2021/11/10 07:07:54;;;;;;;4.10;2.45;;;;;;;1.08;100.00;100204.09;5093463;28;20051;-65
2021/11/10 07:10:21;;;;;;;3.67;2.30;;;;;;;1.07;100.00;100193.88;5093674;28;20060;-65
2021/11/10 07:12:48;;;;;;;4.18;2.00;;;;;;;1.07;100.00;100184.47;5093969;28;20189;-65
2021/11/10 07:15:17;;;;;;;4.20;2.15;;;;;;;1.03;100.00;100189.72;5093645;28;20055;-65
2021/11/10 07:17:43;;;;;;;5.00;2.90;;;;;;;1.08;100.00;100185.31;5093505;28;20137;-65
2021/11/10 07:20:11;;;;;;;5.88;1.92;;;;;;;1.05;100.00;100175.13;5093466;28;20051;-65
2021/11/10 07:22:38;;;;;;;3.30;1.92;;;;;;;1.04;100.00;100169.19;5093217;28;20040;-65
2021/11/10 07:25:06;;;;;;;5.32;2.35;;;;;;;1.09;100.00;100181.88;5093485;28;20059;-66
2021/11/10 07:27:34;;;;;;;2.15;1.67;;;;;;;1.09;100.00;100187.84;5093254;28;20052;-65
2021/11/10 07:30:00;;;;;;;;;;;;;;;1.11;100.00;100180.13;5093569;28;20450;-65
2021/11/10 07:32:29;;;;;;;7.13;2.70;;;;;;;1.11;100.00;100180.13;5093203;28;19934;-65
2021/11/10 07:34:55;;;;;;;3.63;1.60;;;;;;;1.10;100.00;100168.16;5093135;28;20052;-68
2021/11/10 07:37:22;;;;;;;5.20;2.63;;;;;;;1.14;100.00;100166.41;5093177;28;20050;-65
2021/11/10 07:39:49;;;;;;;4.95;2.78;;;;;;;1.12;100.00;100163.84;5093136;28;20496;-65
2021/11/10 07:42:16;;;;;;;3.83;2.25;;;;;;;1.08;100.00;100157.16;5092597;28;20054;-65
2021/11/10 07:44:43;;;;;;;3.67;2.45;;;;;;;1.09;100.00;100151.13;5092881;28;20045;-66
2021/11/10 07:47:14;;;;;;;4.70;3.13;;;;;;;1.11;100.00;100153.66;5093146;28;20044;-66
2021/11/10 07:49:44;;;;;;;2.25;1.30;;;;;;;1.12;100.00;100156.16;5093025;28;20043;-66
2021/11/10 07:52:11;;;;;;;4.72;2.78;;;;;;;1.20;100.00;100159.38;5092824;28;20438;-66
2021/11/10 07:54:38;;;;;;;;;;;;;;;1.20;100.00;100169.63;5093536;28;20055;-66
2021/11/10 07:57:05;;;;;;;3.83;2.08;;;;;;;1.23;100.00;100168.69;5092552;28;19923;-66
2021/11/10 07:59:32;;;;;;;3.25;2.30;;;;;;;1.24;100.00;100176.38;5092764;28;20055;-65
2021/11/10 08:01:59;;;;;;;5.43;3.15;;;;;;;1.25;100.00;100162.66;5092579;28;20052;-66
2021/11/10 08:04:26;;;;;;;4.25;2.92;;;;;;;1.26;100.00;100154.09;5092952;28;20068;-66
2021/11/10 08:06:54;;;;;;;14.02;2.72;;;;;;;1.29;100.00;100148.06;5092990;28;20051;-66
2021/11/10 08:09:21;;;;;;;7.28;3.50;;;;;;;1.30;100.00;100153.13;5092259;28;20503;-66
2021/11/10 08:11:48;;;;;;;10.43;4.40;;;;;;;1.32;100.00;100142.84;5092822;28;20430;-66
2021/11/10 08:14:15;;;;;;;4.93;3.45;;;;;;;1.30;100.00;100147.16;5092576;28;20499;-66
2021/11/10 08:16:42;;;;;;;11.25;4.90;;;;;;;1.30;100.00;100145.44;5092763;28;20048;-66
2021/11/10 08:19:09;;;;;;;6.32;2.97;;;;;;;1.32;100.00;100135.16;5092399;28;20043;-66
2021/11/10 08:21:35;;;;;;;13.30;5.38;;;;;;;1.37;100.00;100130.75;5092168;28;20051;-66
2021/11/10 08:24:05;;;;;;;6.88;3.78;;;;;;;1.37;100.00;100138.44;5092087;28;20048;-66
2021/11/10 08:26:32;;;;;;;10.32;5.38;;;;;;;1.38;100.00;100147.78;5092318;28;20446;-66
2021/11/10 08:28:59;;;;;;;6.35;3.40;;;;;;;1.39;100.00;100156.31;5092475;28;20048;-66
2021/11/10 08:31:26;;;;;;;;;;;;;;;1.43;100.00;100169.03;5092992;28;20075;-66
2021/11/10 08:33:52;;;;;;;11.10;5.30;;;;;;;1.51;100.00;100185.03;5092156;28;19920;-66
2021/11/10 08:36:19;;;;;;;8.95;4.82;;;;;;;1.59;100.00;100182.25;5091871;28;20392;-66
2021/11/10 08:38:46;;;;;;;12.10;4.68;;;;;;;1.65;100.00;100187.25;5092003;28;20050;-66
2021/11/10 08:41:16;;;;;;;12.05;4.68;;;;;;;1.65;100.00;100188.97;5091849;28;20066;-66
2021/11/10 08:43:43;;;;;;;6.18;2.75;;;;;;;1.70;100.00;100185.41;5092299;28;20145;-66
2021/11/10 08:46:09;;;;;;;5.30;3.13;;;;;;;1.72;100.00;100187.91;5091715;28;20487;-66
2021/11/10 08:48:38;;;;;;;7.00;3.90;;;;;;;1.76;100.00;100193.81;5092254;28;20048;-65
2021/11/10 08:51:05;;;;;;;3.85;2.20;;;;;;;1.73;100.00;100190.44;5091627;28;20457;-65
2021/11/10 08:53:34;;;;;;;8.13;3.47;;;;;;;1.75;100.00;100182.72;5091715;28;20044;-65
2021/11/10 08:56:03;;;;;;;5.10;2.58;;;;;;;1.71;100.00;100184.50;5092004;28;20074;-66
2021/11/10 08:58:32;;;;;;;24.00;3.03;;;;;;;1.77;100.00;100177.50;5091889;28;20151;-66
2021/11/10 09:00:59;;;;;;;5.22;2.63;;;;;;;1.81;100.00;100190.22;5091994;28;20047;-66
2021/11/10 09:03:27;;;;;;;6.93;3.50;;;;;;;1.87;100.00;100195.16;5092133;28;20058;-65
2021/11/10 09:05:54;;;;;;;3.58;2.35;;;;;;;1.86;100.00;100185.81;5092131;28;20048;-66
2021/11/10 09:08:23;;;;;;;2.65;1.60;;;;;;;1.85;100.00;100186.69;5091867;28;20048;-65
2021/11/10 09:10:51;;;;;;;9.00;2.70;;;;;;;1.85;100.00;100173.88;5091804;28;20097;-66
2021/11/10 09:13:17;;;;;;;;;;;;;;;1.84;100.00;100167.03;5092219;28;20044;-65
2021/11/10 09:15:46;;;;;;;7.57;2.75;;;;;;;1.82;100.00;100152.56;5092021;28;20287;-65
2021/11/10 09:18:13;;;;;;;2.90;1.77;;;;;;;1.83;100.00;100155.09;5091323;28;20408;-65
2021/11/10 09:20:41;;;;;;;;;;;;;;;1.89;100.00;100166.91;5092219;28;20074;-65
2021/11/10 09:23:12;;;;;;;5.68;2.50;;;;;;;1.88;100.00;100170.38;5091409;28;19920;-65
2021/11/10 09:25:39;;;;;;;5.35;3.30;;;;;;;1.91;100.00;100160.03;5091903;28;20052;-66
2021/11/10 09:28:08;;;;;;;4.60;3.40;;;;;;;1.91;100.00;100160.84;5091712;28;20055;-65
2021/11/10 09:30:38;;;;;;;5.55;3.55;;;;;;;1.89;100.00;100152.34;5091471;28;20484;-66
2021/11/10 09:33:08;;;;;;;3.80;2.33;;;;;;;1.90;100.00;100148.94;5093752;28;20512;-66
2021/11/10 09:35:36;;;;;;;5.40;3.33;;;;;;;1.90;100.00;100151.50;5095711;28;20070;-65
2021/11/10 09:38:05;;;;;;;3.50;2.53;;;;;;;1.93;100.00;100146.25;5095604;28;20388;-68
2021/11/10 09:40:38;;;;;;;4.68;2.92;;;;;;;2.01;100.00;100152.91;5095652;28;20048;-67
2021/11/10 09:43:06;;;;;;;4.05;2.80;;;;;;;1.99;100.00;100145.25;5095007;28;20043;-68
2021/11/10 09:45:34;;;;;;;5.63;3.17;;;;;;;1.99;100.00;100146.97;5095279;28;20484;-68
2021/11/10 09:48:02;;;;;;;8.98;5.05;;;;;;;2.00;100.00;100138.38;5095038;28;20048;-67
2021/11/10 09:50:31;;;;;;;5.45;3.53;;;;;;;2.04;100.00;100138.25;5095524;28;20048;-67
2021/11/10 09:52:59;;;;;;;8.23;4.82;;;;;;;2.08;100.00;100131.28;5094953;28;20052;-67
2021/11/10 09:55:29;;;;;;;8.90;4.20;;;;;;;2.09;100.00;100131.25;5095451;28;20048;-68
2021/11/10 09:57:59;;;;;;;5.60;3.58;;;;;;;2.04;100.00;100134.84;5095278;28;20084;-68
2021/11/10 10:00:32;;;;;;;8.73;4.05;;;;;;;2.12;100.00;100126.03;5095311;28;20051;-67
2021/11/10 10:03:00;;;;;;;5.78;3.05;;;;;;;2.11;100.00;100129.47;5095147;28;20044;-67
2021/11/10 10:05:27;;;;;;;8.75;3.92;;;;;;;2.16;100.00;100135.31;5094921;28;20058;-67
2021/11/10 10:07:58;;;;;;;10.38;4.95;;;;;;;2.16;100.00;100132.75;5094824;28;20052;-67
2021/11/10 10:10:25;;;;;;;5.95;3.85;;;;;;;2.14;100.00;100131.94;5094635;28;20055;-68
2021/11/10 10:12:54;;;;;;;7.63;4.32;;;;;;;2.14;100.00;100124.25;5094734;28;20051;-67
2021/11/10 10:15:22;;;;;;;3.10;2.40;;;;;;;2.15;100.00;100115.66;5094821;28;20043;-68
2021/11/10 10:17:56;;;;;;;;;;;;;;;2.13;100.00;100114.03;5095155;28;20091;-67
2021/11/10 10:20:25;;;;;;;8.27;4.32;;;;;;;2.12;100.00;100113.19;5094395;28;19971;-68
2021/11/10 10:22:53;;;;;;;13.63;6.05;;;;;;;2.13;100.00;100108.88;5094457;28;20051;-67
2021/11/10 10:25:22;;;;;;;10.48;5.47;;;;;;;2.15;100.00;100115.66;5094302;28;20048;-67
2021/11/10 10:27:55;;;;;;;7.25;4.88;;;;;;;2.18;100.00;100118.16;5094501;28;20407;-67
2021/11/10 10:30:28;;;;;;;8.98;4.97;;;;;;;2.19;100.00;100113.84;5094099;28;20051;-67
2021/11/10 10:32:57;;;;;;;7.28;4.82;;;;;;;2.23;100.00;100117.16;5094636;28;20097;-68
2021/11/10 10:35:34;;;;;;;7.05;4.40;;;;;;;2.24;100.00;100117.13;5094420;28;20048;-68
2021/11/10 10:38:03;;;;;;;6.18;3.85;;;;;;;2.23;100.00;100124.84;5094424;28;20055;-68
2021/11/10 10:40:34;;;;;;;10.07;6.50;;;;;;;2.20;100.00;100107.81;5094137;28;20495;-67
2021/11/10 10:43:01;;;;;;;5.97;4.07;;;;;;;2.26;100.00;100111.91;5093584;28;20139;-68
2021/11/10 10:45:33;;;;;;;12.07;5.82;;;;;;;2.23;100.00;100106.88;5093976;28;20064;-68
2021/11/10 10:48:03;;;;;;;9.30;6.40;;;;;;;2.29;100.00;100111.84;5094374;28;20056;-66
2021/11/10 10:50:31;;;;;;;13.05;5.95;;;;;;;2.31;100.00;100112.63;5094653;28;20044;-66
2021/11/10 10:52:58;;;;;;;13.52;5.60;;;;;;;2.31;100.00;100108.34;5093655;28;20058;-66
2021/11/10 10:55:33;;;;;;;;;;;;;;;2.33;100.00;100108.28;5094555;28;20051;-66
2021/11/10 10:58:00;;;;;;;4.65;3.60;;;;;;;2.32;100.00;100104.88;5093923;28;20383;-66
2021/11/10 11:00:30;;;;;;;8.20;5.15;;;;;;;2.35;100.00;100097.06;5094112;28;20052;-66
2021/11/10 11:02:59;;;;;;;9.80;4.75;;;;;;;2.34;100.00;100095.41;5093952;28;20078;-67
2021/11/10 11:05:39;;;;;;;3.92;2.85;;;;;;;2.34;100.00;100097.97;5093752;28;20044;-67
2021/11/10 11:08:25;;;;;;;6.88;3.63;;;;;;;2.36;100.00;100098.78;5093345;28;20075;-66
2021/11/10 11:10:54;;;;;;;7.28;4.15;;;;;;;2.36;100.00;100091.06;5093888;28;20044;-66
2021/11/10 11:13:24;;;;;;;6.15;3.42;;;;;;;2.35;100.00;100089.38;5093333;28;20202;-66
2021/11/10 11:16:05;;;;;;;6.70;4.72;;;;;;;2.35;100.00;100088.53;5094215;28;20051;-66
2021/11/10 11:18:32;;;;;;;5.72;3.50;;;;;;;2.40;100.00;100090.06;5093586;28;20151;-67
2021/11/10 11:20:59;;;;;;;7.20;3.45;;;;;;;2.38;100.00;100091.84;5093369;28;20048;-66
2021/11/10 11:23:41;;;;;;;5.95;3.75;;;;;;;2.38;100.00;100091.00;5093402;28;20055;-66
2021/11/10 11:26:35;;;;;;;6.75;4.35;;;;;;;2.39;100.00;100083.25;5093373;28;20121;-66
2021/11/10 11:29:20;;;;;;;8.93;4.00;;;;;;;2.41;100.00;100078.06;5092955;28;20048;-66
2021/11/10 11:31:47;;;;;;;6.22;3.90;;;;;;;2.42;100.00;100084.91;5093620;28;20125;-67
2021/11/10 11:34:14;;;;;;;4.57;2.53;;;;;;;2.44;100.00;100077.13;5093320;28;20047;-66